createdAt,value
2019-03-20T00:00:11.192Z,1.03
2019-03-20T00:02:39.750Z,1.23
2019-03-20T00:05:08.925Z,0.80
2019-03-20T00:07:37.490Z,1.50
2019-03-20T00:10:08.226Z,1.33
2019-03-20T00:12:37.153Z,1.33
2019-03-20T00:15:15.913Z,1.20
2019-03-20T00:17:44.852Z,1.43
2019-03-20T00:20:14.595Z,1.47
2019-03-20T00:22:43.469Z,1.10
2019-03-20T00:25:12.763Z,1.20
2019-03-20T00:27:41.934Z,1.30
2019-03-20T00:30:18.200Z,1.40
2019-03-20T00:32:47.137Z,1.40
2019-03-20T00:35:15.731Z,1.53
2019-03-20T00:37:44.304Z,2.10
2019-03-20T00:40:17.242Z,1.73
2019-03-20T00:42:45.888Z,1.33
2019-03-20T00:45:22.163Z,1.60
2019-03-20T00:47:50.731Z,1.10
2019-03-20T00:50:22.680Z,1.40
2019-03-20T00:52:51.239Z,1.00
2019-03-20T00:55:20.456Z,1.10
2019-03-20T00:57:49.169Z,1.03
2019-03-20T01:00:21.594Z,1.10
2019-03-20T01:02:50.122Z,0.93
2019-03-20T01:05:18.878Z,1.27
2019-03-20T01:07:47.610Z,1.07
2019-03-20T01:10:21.092Z,1.60
2019-03-20T01:12:49.817Z,0.90
2019-03-20T01:15:18.467Z,1.40
2019-03-20T01:17:47.304Z,0.90
2019-03-20T01:20:21.107Z,0.93
2019-03-20T01:22:49.841Z,0.70
2019-03-20T01:25:18.968Z,1.00
2019-03-20T01:27:47.550Z,1.40
2019-03-20T01:30:35.884Z,1.33
2019-03-20T01:33:12.649Z,0.90
2019-03-20T01:35:41.513Z,1.00
2019-03-20T01:38:11.180Z,1.20
2019-03-20T01:40:40.610Z,1.00
2019-03-20T01:43:09.682Z,1.30
2019-03-20T01:45:38.652Z,1.17
2019-03-20T01:48:07.222Z,1.17
2019-03-20T01:50:35.807Z,1.40
2019-03-20T01:53:04.862Z,1.17
2019-03-20T01:55:33.441Z,1.13
2019-03-20T01:58:02.007Z,1.47
2019-03-20T02:00:31.065Z,1.63
2019-03-20T02:02:59.642Z,1.37
2019-03-20T02:05:35.904Z,1.30
2019-03-20T02:07:59.031Z,1.03
2019-03-20T02:10:27.655Z,1.60
2019-03-20T02:12:58.582Z,0.97
2019-03-20T02:15:37.703Z,1.50
2019-03-20T02:17:57.399Z,1.33
2019-03-20T02:20:26.361Z,0.67
2019-03-20T02:22:54.973Z,1.47
2019-03-20T02:25:23.521Z,1.33
2019-03-20T02:27:52.088Z,1.10
2019-03-20T02:30:23.593Z,1.33
2019-03-20T02:32:52.168Z,1.40
2019-03-20T02:35:20.764Z,1.13
2019-03-20T02:37:49.326Z,0.90
2019-03-20T02:40:17.923Z,1.20
2019-03-20T02:42:46.490Z,1.13
2019-03-20T02:45:16.222Z,1.13
2019-03-20T02:47:44.862Z,1.57
2019-03-20T02:50:14.626Z,1.50
2019-03-20T02:52:43.184Z,1.27
2019-03-20T02:55:12.421Z,0.60
2019-03-20T02:57:40.998Z,1.47
2019-03-20T03:00:12.673Z,1.00
2019-03-20T03:02:41.660Z,1.13
2019-03-20T03:05:10.894Z,1.57
2019-03-20T03:07:39.868Z,1.37
2019-03-20T03:10:16.708Z,1.20
2019-03-20T03:12:45.610Z,1.70
2019-03-20T03:15:14.808Z,0.70
2019-03-20T03:17:43.403Z,1.10
2019-03-20T03:20:13.596Z,1.10
2019-03-20T03:22:42.198Z,0.70
2019-03-20T03:25:12.341Z,1.60
2019-03-20T03:27:40.932Z,1.17
2019-03-20T03:30:17.101Z,1.50
2019-03-20T03:32:45.827Z,1.40
2019-03-20T03:35:17.861Z,1.30
2019-03-20T03:37:45.224Z,1.23
2019-03-20T03:40:21.006Z,1.10
2019-03-20T03:42:49.701Z,1.30
2019-03-20T03:45:18.316Z,1.47
2019-03-20T03:47:46.954Z,1.63
2019-03-20T03:50:15.875Z,0.80
2019-03-20T03:52:44.549Z,1.60
2019-03-20T03:55:16.161Z,1.83
2019-03-20T03:57:45.242Z,1.17
2019-03-20T04:00:17.927Z,1.33
2019-03-20T04:02:46.826Z,1.20
2019-03-20T04:05:15.561Z,1.30
2019-03-20T04:07:44.286Z,1.33
2019-03-20T04:10:15.062Z,1.43
2019-03-20T04:12:43.643Z,1.37
2019-03-20T04:15:14.231Z,2.40
2019-03-20T04:17:44.450Z,1.60
2019-03-20T04:20:17.965Z,1.70
2019-03-20T04:22:46.942Z,1.27
2019-03-20T04:25:16.360Z,1.50
2019-03-20T04:27:44.958Z,1.90
2019-03-20T04:30:15.897Z,1.93
2019-03-20T04:32:44.442Z,1.30
2019-03-20T04:35:13.237Z,2.00
2019-03-20T04:37:41.834Z,1.53
2019-03-20T04:40:18.322Z,1.83
2019-03-20T04:42:47.045Z,1.80
2019-03-20T04:45:16.342Z,1.57
2019-03-20T04:47:44.946Z,3.57
2019-03-20T04:50:14.879Z,4.20
2019-03-20T04:52:43.636Z,1.77
2019-03-20T04:55:13.481Z,1.57
2019-03-20T04:57:42.133Z,2.07
2019-03-20T05:00:19.393Z,1.20
2019-03-20T05:02:47.993Z,2.40
2019-03-20T05:05:16.914Z,1.67
2019-03-20T05:07:45.839Z,1.50
2019-03-20T05:10:15.871Z,1.10
2019-03-20T05:12:44.540Z,1.60
2019-03-20T05:15:14.239Z,1.40
2019-03-20T05:17:43.181Z,2.07
2019-03-20T05:20:20.197Z,2.17
2019-03-20T05:22:48.875Z,1.73
2019-03-20T05:25:17.583Z,1.20
2019-03-20T05:27:46.172Z,1.63
2019-03-20T05:30:15.688Z,1.43
2019-03-20T05:32:44.336Z,1.80
2019-03-20T05:35:13.452Z,1.00
2019-03-20T05:37:42.140Z,1.40
2019-03-20T05:40:13.748Z,1.60
2019-03-20T05:42:42.328Z,1.30
2019-03-20T05:45:13.234Z,1.27
2019-03-20T05:47:43.127Z,6.10
2019-03-20T05:50:13.337Z,1.33
2019-03-20T05:52:41.933Z,0.87
2019-03-20T05:55:10.849Z,1.40
2019-03-20T05:57:39.421Z,1.60
2019-03-20T06:00:14.257Z,1.60
2019-03-20T06:02:42.965Z,2.13
2019-03-20T06:05:11.938Z,3.70
2019-03-20T06:07:40.631Z,6.33
2019-03-20T06:10:11.930Z,4.57
2019-03-20T06:12:40.651Z,2.87
2019-03-20T06:15:09.494Z,2.30
2019-03-20T06:17:38.419Z,1.80
2019-03-20T06:20:09.600Z,1.90
2019-03-20T06:22:38.567Z,4.23
2019-03-20T06:25:10.754Z,1.80
2019-03-20T06:27:39.390Z,1.60
2019-03-20T06:30:13.829Z,2.07
2019-03-20T06:32:42.397Z,2.10
2019-03-20T06:35:11.556Z,2.43
2019-03-20T06:37:40.131Z,2.20
2019-03-20T06:40:13.362Z,2.67
2019-03-20T06:42:42.001Z,2.53
2019-03-20T06:45:16.504Z,2.50
2019-03-20T06:47:45.094Z,2.80
2019-03-20T06:50:19.671Z,2.63
2019-03-20T06:52:48.233Z,2.20
2019-03-20T06:55:16.858Z,1.77
2019-03-20T06:57:45.522Z,1.90
2019-03-20T07:00:39.768Z,2.10
2019-03-20T07:03:14.346Z,1.73
2019-03-20T07:05:53.707Z,2.30
2019-03-20T07:08:24.829Z,1.63
2019-03-20T07:11:07.724Z,4.27
2019-03-20T07:13:36.625Z,5.50
2019-03-20T07:16:05.752Z,1.20
2019-03-20T07:18:34.480Z,1.63
2019-03-20T07:21:03.614Z,1.30
2019-03-20T07:23:33.879Z,1.17
2019-03-20T07:26:02.678Z,1.90
2019-03-20T07:28:31.613Z,1.37
2019-03-20T07:31:00.309Z,1.30
2019-03-20T07:33:29.009Z,1.03
2019-03-20T07:35:57.728Z,1.10
2019-03-20T07:38:26.895Z,1.10
2019-03-20T07:40:58.126Z,1.20
2019-03-20T07:43:29.880Z,1.03
2019-03-20T07:45:58.585Z,1.47
2019-03-20T07:48:27.156Z,1.10
2019-03-20T07:50:55.907Z,2.53
2019-03-20T07:53:24.920Z,1.90
2019-03-20T07:55:55.280Z,1.80
2019-03-20T07:58:24.236Z,1.73
2019-03-20T08:00:52.950Z,1.77
2019-03-20T08:03:21.544Z,1.97
2019-03-20T08:05:50.131Z,1.43
2019-03-20T08:08:18.714Z,1.13
2019-03-20T08:10:47.307Z,1.27
2019-03-20T08:13:15.988Z,1.80
2019-03-20T08:15:44.560Z,1.40
2019-03-20T08:18:13.201Z,1.30
2019-03-20T08:20:41.794Z,1.57
2019-03-20T08:23:10.386Z,1.37
2019-03-20T08:25:40.926Z,1.23
2019-03-20T08:28:09.652Z,2.20
2019-03-20T08:30:46.658Z,2.33
2019-03-20T08:33:15.338Z,1.63
2019-03-20T08:35:47.162Z,1.30
2019-03-20T08:38:18.485Z,1.33
2019-03-20T08:40:46.042Z,1.70
2019-03-20T08:43:24.567Z,0.90
2019-03-20T08:45:53.144Z,1.30
2019-03-20T08:48:25.939Z,1.97
2019-03-20T08:50:54.560Z,1.40
2019-03-20T08:53:23.129Z,1.40
2019-03-20T08:55:51.802Z,1.63
2019-03-20T08:58:20.463Z,1.30
2019-03-20T09:00:54.718Z,1.00
2019-03-20T09:03:23.321Z,1.97
2019-03-20T09:05:51.901Z,2.80
2019-03-20T09:08:28.728Z,1.30
2019-03-20T09:10:50.783Z,1.40
2019-03-20T09:13:19.340Z,0.90
2019-03-20T09:15:48.056Z,1.00
2019-03-20T09:18:16.782Z,1.27
2019-03-20T09:20:45.372Z,1.03
2019-03-20T09:23:14.156Z,0.97
2019-03-20T09:25:42.780Z,1.30
2019-03-20T09:28:11.525Z,1.40
2019-03-20T09:30:40.133Z,1.70
2019-03-20T09:33:08.698Z,1.77
2019-03-20T09:35:37.341Z,1.20
2019-03-20T09:38:06.049Z,1.43
2019-03-20T09:40:36.183Z,1.67
2019-03-20T09:43:04.883Z,1.40
2019-03-20T09:45:33.458Z,1.90
2019-03-20T09:48:02.032Z,2.30
2019-03-20T09:50:30.589Z,2.37
2019-03-20T09:52:59.191Z,1.83
2019-03-20T09:55:27.740Z,4.17
2019-03-20T09:57:56.333Z,4.23
2019-03-20T10:00:28.161Z,4.13
2019-03-20T10:02:56.833Z,5.33
2019-03-20T10:05:25.587Z,6.10
2019-03-20T10:07:54.171Z,5.80
2019-03-20T10:10:24.727Z,4.13
2019-03-20T10:12:53.272Z,4.57
2019-03-20T10:15:26.033Z,3.70
2019-03-20T10:17:54.714Z,5.57
2019-03-20T10:20:23.827Z,6.50
2019-03-20T10:22:52.455Z,5.97
2019-03-20T10:25:21.036Z,8.53
2019-03-20T10:27:51.793Z,7.03
2019-03-20T10:30:27.145Z,6.37
2019-03-20T10:32:55.803Z,6.67
2019-03-20T10:35:24.440Z,6.93
2019-03-20T10:37:53.195Z,7.87
2019-03-20T10:40:25.623Z,8.20
2019-03-20T10:42:54.212Z,8.80
2019-03-20T10:45:22.861Z,7.13
2019-03-20T10:47:53.274Z,7.63
2019-03-20T10:50:23.654Z,6.37
2019-03-20T10:52:52.267Z,7.30
2019-03-20T10:55:20.835Z,9.40
2019-03-20T10:57:50.100Z,9.00
2019-03-20T11:00:25.776Z,9.50
2019-03-20T11:03:01.791Z,9.27
2019-03-20T11:05:30.846Z,10.37
2019-03-20T11:08:03.092Z,9.83
2019-03-20T11:10:33.501Z,8.57
2019-03-20T11:13:02.094Z,10.17
2019-03-20T11:15:30.673Z,10.43
2019-03-20T11:18:03.695Z,9.10
2019-03-20T11:20:32.592Z,8.17
2019-03-20T11:23:01.595Z,9.10
2019-03-20T11:25:30.239Z,9.93
2019-03-20T11:27:58.811Z,8.27
2019-03-20T11:30:31.039Z,8.43
2019-03-20T11:32:59.719Z,9.63
2019-03-20T11:35:28.282Z,8.87
2019-03-20T11:37:56.873Z,9.90
2019-03-20T11:40:30.981Z,9.57
2019-03-20T11:42:59.711Z,9.40
2019-03-20T11:45:28.407Z,9.87
2019-03-20T11:47:57.050Z,9.20
2019-03-20T11:50:28.073Z,10.33
2019-03-20T11:52:56.784Z,9.50
2019-03-20T11:55:25.369Z,10.07
2019-03-20T11:57:54.064Z,9.27
2019-03-20T12:00:23.474Z,8.70
2019-03-20T12:02:52.081Z,9.27
2019-03-20T12:05:20.739Z,9.60
2019-03-20T12:07:49.393Z,8.70
2019-03-20T12:10:26.072Z,9.10
2019-03-20T12:12:54.721Z,9.03
2019-03-20T12:15:23.362Z,11.57
2019-03-20T12:17:51.962Z,8.83
2019-03-20T12:20:22.538Z,9.50
2019-03-20T12:22:52.052Z,8.87
2019-03-20T12:25:26.104Z,10.60
2019-03-20T12:27:54.780Z,11.77
2019-03-20T12:30:28.808Z,11.70
2019-03-20T12:32:57.401Z,11.17
2019-03-20T12:35:28.483Z,8.90
2019-03-20T12:37:57.082Z,8.77
2019-03-20T12:40:27.380Z,8.73
2019-03-20T12:42:56.384Z,7.67
2019-03-20T12:45:29.674Z,9.10
2019-03-20T12:47:58.257Z,10.40
2019-03-20T12:50:26.976Z,10.03
2019-03-20T12:53:01.712Z,11.47
2019-03-20T12:55:32.454Z,10.93
2019-03-20T12:58:04.677Z,10.00
2019-03-20T13:00:34.641Z,8.73
2019-03-20T13:03:05.094Z,8.87
2019-03-20T13:05:33.627Z,8.40
2019-03-20T13:08:05.973Z,8.53
2019-03-20T13:10:51.914Z,9.57
2019-03-20T13:13:20.574Z,9.83
2019-03-20T13:15:49.120Z,8.70
2019-03-20T13:18:17.692Z,6.87
2019-03-20T13:20:46.293Z,6.97
2019-03-20T13:23:20.980Z,6.47
2019-03-20T13:25:49.560Z,6.43
2019-03-20T13:28:18.143Z,6.13
2019-03-20T13:30:55.613Z,6.13
2019-03-20T13:33:26.132Z,5.73
2019-03-20T13:35:54.435Z,6.27
2019-03-20T13:38:23.001Z,7.20
2019-03-20T13:40:51.665Z,6.13
2019-03-20T13:43:20.259Z,7.07
2019-03-20T13:45:48.898Z,6.07
2019-03-20T13:48:17.459Z,5.80
2019-03-20T13:50:46.041Z,5.80
2019-03-20T13:53:15.519Z,7.03
2019-03-20T13:55:44.287Z,7.07
2019-03-20T13:58:12.920Z,7.37
2019-03-20T14:00:41.520Z,6.87
2019-03-20T14:03:10.085Z,6.97
2019-03-20T14:05:38.685Z,7.53
2019-03-20T14:08:07.271Z,7.60
2019-03-20T14:10:49.618Z,7.00
2019-03-20T14:13:06.578Z,7.30
2019-03-20T14:15:35.145Z,6.60
2019-03-20T14:18:03.803Z,5.93
2019-03-20T14:20:33.997Z,5.73
2019-03-20T14:23:02.557Z,5.30
2019-03-20T14:25:31.153Z,5.70
2019-03-20T14:27:59.723Z,5.97
2019-03-20T14:30:29.553Z,5.20
2019-03-20T14:32:58.362Z,4.90
2019-03-20T14:35:26.964Z,6.13
2019-03-20T14:37:55.779Z,4.83
2019-03-20T14:40:36.300Z,5.77
2019-03-20T14:43:02.868Z,5.67
2019-03-20T14:45:31.492Z,5.00
2019-03-20T14:48:00.392Z,5.07
2019-03-20T14:50:32.055Z,4.73
2019-03-20T14:53:00.704Z,4.53
2019-03-20T14:55:29.371Z,4.30
2019-03-20T14:57:57.964Z,4.67
2019-03-20T15:00:30.158Z,4.00
2019-03-20T15:02:58.921Z,3.73
2019-03-20T15:05:27.618Z,4.03
2019-03-20T15:07:56.270Z,4.00
2019-03-20T15:10:25.906Z,3.33
2019-03-20T15:12:55.108Z,2.90
2019-03-20T15:15:44.202Z,4.00
2019-03-20T15:18:12.771Z,4.10
2019-03-20T15:20:41.360Z,3.87
2019-03-20T15:23:09.922Z,4.03
2019-03-20T15:25:38.533Z,3.63
2019-03-20T15:28:07.077Z,4.00
2019-03-20T15:30:35.706Z,3.50
2019-03-20T15:33:04.434Z,3.67
2019-03-20T15:35:33.015Z,4.13
2019-03-20T15:38:01.584Z,3.27
2019-03-20T15:40:31.036Z,3.83
2019-03-20T15:42:59.962Z,3.80
2019-03-20T15:45:28.542Z,3.30
2019-03-20T15:47:57.138Z,3.73
2019-03-20T15:50:27.274Z,4.47
2019-03-20T15:52:56.011Z,4.33
2019-03-20T15:55:33.386Z,4.17
2019-03-20T15:58:02.008Z,5.30
2019-03-20T16:00:30.605Z,4.67
2019-03-20T16:03:14.018Z,4.30
2019-03-20T16:05:42.647Z,4.03
2019-03-20T16:08:11.264Z,4.27
2019-03-20T16:10:39.952Z,3.37
2019-03-20T16:13:08.604Z,3.90
2019-03-20T16:15:37.262Z,4.10
2019-03-20T16:18:05.991Z,5.87
2019-03-20T16:20:34.586Z,4.87
2019-03-20T16:23:03.198Z,4.03
2019-03-20T16:25:31.759Z,6.07
2019-03-20T16:28:00.344Z,4.83
2019-03-20T16:30:32.743Z,6.17
2019-03-20T16:33:01.356Z,6.93
2019-03-20T16:35:29.931Z,4.27
2019-03-20T16:37:58.537Z,3.80
2019-03-20T16:40:34.420Z,3.73
2019-03-20T16:43:03.023Z,3.27
2019-03-20T16:45:33.542Z,3.20
2019-03-20T16:48:02.158Z,3.30
2019-03-20T16:50:30.709Z,3.73
2019-03-20T16:52:59.306Z,2.97
2019-03-20T16:55:27.932Z,3.33
2019-03-20T16:57:56.534Z,3.20
2019-03-20T17:00:32.197Z,3.33
2019-03-20T17:03:00.970Z,3.17
2019-03-20T17:05:30.462Z,2.83
2019-03-20T17:07:59.200Z,3.17
2019-03-20T17:10:33.364Z,3.60
2019-03-20T17:13:02.300Z,3.60
2019-03-20T17:15:35.749Z,3.63
2019-03-20T17:18:05.205Z,4.30
2019-03-20T17:20:33.806Z,4.60
2019-03-20T17:23:02.562Z,2.83
2019-03-20T17:25:31.134Z,3.73
2019-03-20T17:27:59.783Z,4.30
2019-03-20T17:30:33.681Z,3.30
2019-03-20T17:33:02.328Z,4.40
2019-03-20T17:35:31.030Z,3.27
2019-03-20T17:37:59.657Z,3.80
2019-03-20T17:40:28.765Z,3.10
2019-03-20T17:42:57.358Z,3.70
2019-03-20T17:45:27.266Z,3.23
2019-03-20T17:47:55.936Z,3.27
2019-03-20T17:50:35.735Z,3.97
2019-03-20T17:53:05.606Z,3.37
2019-03-20T17:55:34.512Z,3.43
2019-03-20T17:58:03.205Z,3.47
2019-03-20T18:00:36.798Z,3.70
2019-03-20T18:03:06.842Z,3.70
2019-03-20T18:05:35.551Z,3.60
2019-03-20T18:08:05.374Z,3.07
2019-03-20T18:10:33.989Z,3.30
2019-03-20T18:13:02.584Z,3.47
2019-03-20T18:15:31.230Z,3.87
2019-03-20T18:18:00.840Z,3.67
2019-03-20T18:20:29.470Z,3.70
2019-03-20T18:22:58.131Z,2.83
2019-03-20T18:25:26.789Z,3.67
2019-03-20T18:27:55.406Z,3.63
2019-03-20T18:30:27.823Z,3.60
2019-03-20T18:32:56.503Z,3.60
2019-03-20T18:35:25.883Z,3.30
2019-03-20T18:37:57.185Z,3.33
2019-03-20T18:40:26.910Z,3.17
2019-03-20T18:42:55.672Z,3.00
2019-03-20T18:45:26.438Z,3.10
2019-03-20T18:47:55.329Z,3.47
2019-03-20T18:50:24.447Z,2.93
2019-03-20T18:52:53.111Z,4.20
2019-03-20T18:55:21.691Z,3.20
2019-03-20T18:57:50.544Z,2.90
2019-03-20T19:00:26.664Z,3.20
2019-03-20T19:02:57.450Z,2.70
2019-03-20T19:05:35.028Z,2.80
2019-03-20T19:08:04.159Z,2.50
2019-03-20T19:10:32.736Z,3.43
2019-03-20T19:13:01.781Z,3.57
2019-03-20T19:15:30.536Z,3.00
2019-03-20T19:17:59.105Z,2.80
2019-03-20T19:20:27.915Z,2.70
2019-03-20T19:22:56.553Z,3.67
2019-03-20T19:25:25.107Z,3.20
2019-03-20T19:27:54.010Z,3.57
2019-03-20T19:30:24.205Z,4.93
2019-03-20T19:32:53.017Z,4.20
2019-03-20T19:35:21.630Z,3.33
2019-03-20T19:37:50.223Z,3.90
2019-03-20T19:40:22.956Z,4.50
2019-03-20T19:42:51.508Z,4.27
2019-03-20T19:45:20.113Z,4.63
2019-03-20T19:47:48.691Z,4.33
2019-03-20T19:50:21.367Z,4.40
2019-03-20T19:52:49.968Z,4.03
2019-03-20T19:55:19.276Z,4.73
2019-03-20T19:57:47.877Z,3.90
2019-03-20T20:00:18.836Z,4.13
2019-03-20T20:02:47.579Z,4.40
2019-03-20T20:05:16.432Z,4.00
2019-03-20T20:07:45.160Z,4.00
2019-03-20T20:10:15.216Z,4.33
2019-03-20T20:12:43.973Z,5.07
2019-03-20T20:15:18.107Z,4.37
2019-03-20T20:17:47.164Z,4.40
2019-03-20T20:20:18.495Z,4.23
2019-03-20T20:22:47.146Z,4.97
2019-03-20T20:25:16.109Z,4.90
2019-03-20T20:27:44.692Z,5.03
2019-03-20T20:30:15.914Z,4.70
2019-03-20T20:32:45.368Z,5.87
2019-03-20T20:35:15.528Z,5.10
2019-03-20T20:37:46.118Z,5.83
2019-03-20T20:40:17.591Z,5.17
2019-03-20T20:42:46.235Z,5.50
2019-03-20T20:45:15.025Z,5.23
2019-03-20T20:47:43.661Z,5.33
2019-03-20T20:50:16.278Z,4.97
2019-03-20T20:52:45.126Z,5.40
2019-03-20T20:55:15.935Z,5.90
2019-03-20T20:57:44.509Z,6.07
2019-03-20T21:00:26.350Z,5.67
2019-03-20T21:02:54.920Z,5.70
2019-03-20T21:05:23.579Z,6.33
2019-03-20T21:07:52.181Z,6.13
2019-03-20T21:10:27.285Z,6.40
2019-03-20T21:12:57.370Z,6.17
2019-03-20T21:15:37.609Z,5.30
2019-03-20T21:18:15.156Z,6.27
2019-03-20T21:20:44.887Z,6.97
2019-03-20T21:23:32.790Z,6.33
2019-03-20T21:26:02.622Z,7.10
2019-03-20T21:28:52.306Z,7.13
2019-03-20T21:31:29.746Z,7.00
2019-03-20T21:34:22.520Z,6.80
2019-03-20T21:37:27.438Z,7.57
2019-03-20T21:39:56.033Z,7.67
2019-03-20T21:43:06.879Z,8.20
2019-03-20T21:45:32.596Z,8.20
2019-03-20T21:48:01.170Z,8.33
2019-03-20T21:50:44.568Z,8.00
2019-03-20T21:53:25.297Z,8.03
2019-03-20T21:56:16.729Z,8.07
2019-03-20T21:58:51.058Z,9.27
2019-03-20T22:01:37.921Z,10.80
2019-03-20T22:04:06.490Z,10.17
2019-03-20T22:06:53.334Z,10.33
2019-03-20T22:09:25.366Z,11.00
2019-03-20T22:12:13.494Z,10.20
2019-03-20T22:14:44.831Z,10.70
2019-03-20T22:17:33.310Z,10.80
2019-03-20T22:20:24.332Z,10.77
2019-03-20T22:23:10.709Z,11.63
2019-03-20T22:25:57.383Z,11.17
2019-03-20T22:28:45.843Z,12.03
2019-03-20T22:31:14.408Z,11.80
2019-03-20T22:34:19.311Z,11.30
2019-03-20T22:36:47.917Z,13.00
2019-03-20T22:39:22.123Z,11.50
2019-03-20T22:42:05.653Z,12.80
2019-03-20T22:44:35.856Z,13.27
2019-03-20T22:47:37.949Z,12.87
2019-03-20T22:50:27.231Z,14.10
2019-03-20T22:53:04.851Z,13.40
2019-03-20T22:55:47.877Z,13.57
2019-03-20T22:58:22.156Z,13.97
2019-03-20T23:00:53.790Z,12.60
2019-03-20T23:03:37.158Z,12.73
2019-03-20T23:06:06.581Z,13.07
2019-03-20T23:08:35.223Z,12.97
2019-03-20T23:11:03.784Z,13.47
2019-03-20T23:13:40.951Z,13.53
2019-03-20T23:16:02.966Z,13.53
2019-03-20T23:18:31.572Z,14.57
2019-03-20T23:21:00.149Z,14.83
2019-03-20T23:23:28.970Z,15.00
2019-03-20T23:25:57.535Z,14.50
2019-03-20T23:28:26.134Z,13.70
2019-03-20T23:30:54.700Z,14.33
2019-03-20T23:33:23.288Z,15.37
2019-03-20T23:35:51.870Z,15.03
2019-03-20T23:38:20.602Z,15.57
2019-03-20T23:40:49.172Z,15.50
2019-03-20T23:43:17.775Z,15.10
2019-03-20T23:45:46.357Z,15.73
2019-03-20T23:48:20.810Z,16.13
2019-03-20T23:50:52.459Z,16.80
2019-03-20T23:53:21.089Z,16.30
2019-03-20T23:55:49.673Z,15.83
2019-03-20T23:58:18.265Z,16.43
